Time;durP1;ratioP1;P1;durP2;ratioP2;P2;SDS_P1;SDS_P2;PMS_P1;PMS_P2;Temp;Humidity;BMP_temperature;BMP_pressure;BME280_temperature;BME280_humidity;BME280_pressure;Samples;Min_cycle;Max_cycle;Signal;HPM_P1;HPM_P2
2022/08/04 00:01:39;;;;;;;1662.15;999.90;;;14.80;99.90;;;;;;4959193;28;20415;-84
2022/08/04 00:04:21;;;;;;;1718.30;999.90;;;14.80;99.90;;;;;;4964492;28;20438;-84
2022/08/04 00:07:06;;;;;;;1668.43;999.90;;;14.70;99.90;;;;;;4957274;28;20423;-83
2022/08/04 00:09:37;;;;;;;1723.45;999.90;;;14.70;99.90;;;;;;4961076;28;20398;-85
2022/08/04 00:12:07;;;;;;;1607.22;999.90;;;14.70;99.90;;;;;;4964684;28;20497;-82
2022/08/04 00:14:36;;;;;;;1659.13;999.90;;;14.70;99.90;;;;;;4964731;28;20402;-85
2022/08/04 00:17:06;;;;;;;1552.50;999.90;;;14.60;99.90;;;;;;4963507;28;20498;-84
2022/08/04 00:19:48;;;;;;;1525.97;999.90;;;14.60;99.90;;;;;;4971093;28;20451;-84
2022/08/04 00:22:21;;;;;;;1486.93;999.90;;;14.60;99.90;;;;;;4964582;28;20412;-83
2022/08/04 00:24:48;;;;;;;1452.95;999.90;;;14.60;99.90;;;;;;4964170;28;20962;-83
2022/08/04 00:27:16;;;;;;;1545.43;999.90;;;14.50;99.90;;;;;;4962390;28;20413;-83
2022/08/04 00:29:45;;;;;;;1450.13;999.90;;;14.50;99.90;;;;;;4963788;28;20882;-83
2022/08/04 00:32:13;;;;;;;1468.75;999.90;;;14.50;99.90;;;;;;4964457;28;20486;-84
2022/08/04 00:35:00;;;;;;;1598.30;999.90;;;14.50;99.90;;;;;;4963905;28;20406;-84
2022/08/04 00:37:28;;;;;;;1592.18;999.90;;;14.40;99.90;;;;;;4956384;28;20408;-84
2022/08/04 00:39:56;;;;;;;1553.03;999.90;;;14.40;99.90;;;;;;4962158;28;20400;-82
2022/08/04 00:42:36;;;;;;;1432.40;999.90;;;14.40;99.90;;;;;;4962309;28;20407;-84
2022/08/04 00:45:35;;;;;;;1472.30;999.90;;;14.30;99.90;;;;;;4964774;28;20487;-83
2022/08/04 00:48:26;;;;;;;1596.05;999.90;;;14.30;99.90;;;;;;4964052;28;20427;-83
2022/08/04 00:51:20;;;;;;;1648.82;999.90;;;14.30;99.90;;;;;;4965477;28;20419;-83
2022/08/04 00:53:56;;;;;;;1704.45;999.90;;;14.30;99.90;;;;;;4964305;28;20938;-83
2022/08/04 00:56:42;;;;;;;1531.32;999.90;;;14.30;99.90;;;;;;4964053;28;20402;-84
2022/08/04 00:59:22;;;;;;;1645.65;999.90;;;14.30;99.90;;;;;;4964254;28;20952;-84
2022/08/04 01:02:24;;;;;;;1607.95;999.90;;;14.30;99.90;;;;;;4962512;28;20429;-84
2022/08/04 01:04:54;;;;;;;1634.10;999.90;;;14.30;99.90;;;;;;4967915;28;20405;-84
2022/08/04 01:07:42;;;;;;;1470.45;999.90;;;14.20;99.90;;;;;;4959286;28;20416;-84
2022/08/04 01:10:21;;;;;;;1567.07;999.90;;;14.20;99.90;;;;;;4967143;28;20404;-83
2022/08/04 01:13:05;;;;;;;1701.97;999.90;;;14.20;99.90;;;;;;4966888;28;20407;-83
2022/08/04 01:16:04;;;;;;;1660.60;999.90;;;14.20;99.90;;;;;;4967749;28;20764;-84
2022/08/04 01:18:45;;;;;;;1590.97;999.90;;;14.20;99.90;;;;;;4963321;28;20463;-84
2022/08/04 01:21:30;;;;;;;1471.00;999.90;;;14.20;99.90;;;;;;4963263;28;20403;-83
2022/08/04 01:24:21;;;;;;;1622.88;999.90;;;14.20;99.90;;;;;;4963512;28;20775;-83
2022/08/04 01:27:01;;;;;;;1611.93;999.90;;;14.20;99.90;;;;;;4970303;28;20412;-83
2022/08/04 01:29:34;;;;;;;1571.05;999.90;;;14.10;99.90;;;;;;4965925;28;20403;-85
2022/08/04 01:32:23;;;;;;;1665.30;999.90;;;14.10;99.90;;;;;;4967898;28;20489;-82
2022/08/04 01:35:07;;;;;;;1565.15;999.90;;;14.10;99.90;;;;;;4961744;28;20404;-84
2022/08/04 01:37:48;;;;;;;1563.78;999.90;;;14.10;99.90;;;;;;4959477;28;20412;-84
2022/08/04 01:40:16;;;;;;;1699.60;999.90;;;14.10;99.90;;;;;;4962455;28;20411;-84
2022/08/04 01:42:45;;;;;;;1670.32;999.90;;;14.00;99.90;;;;;;4967211;28;20410;-85
2022/08/04 01:45:13;;;;;;;1523.18;999.90;;;14.00;99.90;;;;;;4966133;28;20500;-83
2022/08/04 01:47:48;;;;;;;1684.57;999.90;;;14.00;99.90;;;;;;4961623;28;20419;-84
2022/08/04 01:50:15;;;;;;;1648.77;999.90;;;14.00;99.90;;;;;;4963774;28;20412;-85
2022/08/04 01:52:44;;;;;;;1626.68;999.90;;;14.00;99.90;;;;;;4965330;28;20418;-83
2022/08/04 01:55:18;;;;;;;1617.95;999.90;;;14.00;99.90;;;;;;4964069;28;20398;-84
2022/08/04 01:57:48;;;;;;;1592.72;999.90;;;13.90;99.90;;;;;;4963463;28;20429;-85
2022/08/04 02:00:21;;;;;;;1757.88;999.90;;;13.90;99.90;;;;;;4965171;28;20994;-85
2022/08/04 02:02:50;;;;;;;1670.38;999.90;;;13.90;99.90;;;;;;4965447;28;20438;-85
2022/08/04 02:05:20;;;;;;;1604.80;999.90;;;13.90;99.90;;;;;;4966553;28;20893;-84
2022/08/04 02:08:20;;;;;;;1524.90;999.90;;;13.90;99.90;;;;;;4957809;28;20410;-85
2022/08/04 02:11:08;;;;;;;1649.25;999.90;;;13.90;99.90;;;;;;4963363;28;20407;-84
2022/08/04 02:14:02;;;;;;;1697.75;999.90;;;13.90;99.90;;;;;;4955733;28;20401;-84
2022/08/04 02:16:44;;;;;;;1648.30;999.90;;;13.90;99.90;;;;;;4964197;28;20382;-82
2022/08/04 02:19:21;;;;;;;1560.80;999.90;;;13.90;99.90;;;;;;4963384;28;20972;-84
2022/08/04 02:21:56;;;;;;;1626.97;999.90;;;13.80;99.90;;;;;;4966319;28;20386;-84
2022/08/04 02:24:28;;;;;;;1662.38;999.90;;;13.80;99.90;;;;;;4966197;28;20399;-85
2022/08/04 02:26:56;;;;;;;1575.67;999.90;;;13.80;99.90;;;;;;4961896;28;20419;-84
2022/08/04 02:29:50;;;;;;;1689.57;999.90;;;13.80;99.90;;;;;;4968155;28;20414;-84
2022/08/04 02:32:28;;;;;;;1691.13;999.90;;;13.80;99.90;;;;;;4954635;28;20491;-85
2022/08/04 02:35:25;;;;;;;1689.75;999.90;;;13.80;99.90;;;;;;4966336;28;20440;-84
2022/08/04 02:38:11;;;;;;;1575.20;999.90;;;13.80;99.90;;;;;;4966349;28;20410;-83
2022/08/04 02:40:40;;;;;;;1652.93;999.90;;;13.70;99.90;;;;;;4966056;28;20395;-83
2022/08/04 02:43:09;;;;;;;1462.70;999.90;;;13.70;99.90;;;;;;4955142;28;20884;-84
2022/08/04 02:45:42;;;;;;;1549.50;999.90;;;13.70;99.90;;;;;;4966075;28;20416;-84
2022/08/04 02:48:13;;;;;;;1746.53;999.90;;;13.70;99.90;;;;;;4961057;28;20415;-84
2022/08/04 02:50:59;;;;;;;1759.97;999.90;;;13.70;99.90;;;;;;4965997;28;20802;-84
2022/08/04 02:53:29;;;;;;;1379.45;999.90;;;13.60;99.90;;;;;;4966063;28;20432;-83
2022/08/04 02:55:59;;;;;;;1601.85;999.90;;;13.70;99.90;;;;;;4965281;28;20403;-84
2022/08/04 02:58:33;;;;;;;1719.15;999.90;;;13.70;99.90;;;;;;4964177;28;20411;-84
2022/08/04 03:01:01;;;;;;;1536.60;999.90;;;13.70;99.90;;;;;;4958077;28;20408;-84
2022/08/04 03:03:58;;;;;;;1623.78;999.90;;;13.70;99.90;;;;;;4962329;28;20406;-83
2022/08/04 03:06:51;;;;;;;1657.95;999.90;;;13.70;99.90;;;;;;4969388;28;20407;-84
2022/08/04 03:09:33;;;;;;;1515.60;999.90;;;13.60;99.90;;;;;;4964362;28;20390;-84
2022/08/04 03:12:20;;;;;;;1444.47;999.90;;;13.60;99.90;;;;;;4967964;28;20402;-84
2022/08/04 03:15:25;;;;;;;1706.07;999.90;;;13.60;99.90;;;;;;4964739;28;20407;-84
2022/08/04 03:18:16;;;;;;;1593.40;999.90;;;13.60;99.90;;;;;;4963202;28;20440;-83
2022/08/04 03:20:51;;;;;;;1683.32;999.90;;;13.60;99.90;;;;;;4962466;28;20901;-83
2022/08/04 03:23:52;;;;;;;1550.18;999.90;;;13.60;99.90;;;;;;4963528;28;20416;-84
2022/08/04 03:26:22;;;;;;;1800.90;999.90;;;13.60;99.90;;;;;;4957181;28;20408;-85
2022/08/04 03:29:28;;;;;;;1590.35;999.90;;;13.60;99.90;;;;;;4970540;28;20951;-85
2022/08/04 03:32:34;;;;;;;1720.55;999.90;;;13.60;99.90;;;;;;4962154;28;20402;-84
2022/08/04 03:35:28;;;;;;;1645.18;999.90;;;13.70;99.90;;;;;;4963174;28;20402;-83
2022/08/04 03:38:04;;;;;;;1826.45;999.90;;;13.70;99.90;;;;;;4960777;28;20418;-84
2022/08/04 03:41:03;;;;;;;1544.90;999.90;;;13.70;99.90;;;;;;4958004;28;20938;-84
2022/08/04 03:43:38;;;;;;;1776.97;999.90;;;13.70;99.90;;;;;;4963054;28;20395;-83
2022/08/04 03:46:44;;;;;;;1853.43;999.90;;;13.70;99.90;;;;;;4962927;28;20455;-84
2022/08/04 03:50:06;;;;;;;1639.88;999.90;;;13.70;99.90;;;;;;4962239;28;20411;-83
2022/08/04 03:53:08;;;;;;;1584.30;999.90;;;13.70;99.90;;;;;;4965036;28;20464;-84
2022/08/04 03:56:09;;;;;;;1754.00;999.90;;;13.70;99.90;;;;;;4960904;28;20835;-84
2022/08/04 03:59:01;;;;;;;1809.72;999.90;;;13.70;99.90;;;;;;4969419;28;20450;-82
2022/08/04 04:01:59;;;;;;;1794.10;999.90;;;13.80;99.90;;;;;;4963374;28;20975;-84
2022/08/04 04:05:06;;;;;;;1761.05;999.90;;;13.80;99.90;;;;;;4963018;28;20406;-82
2022/08/04 04:07:49;;;;;;;1779.15;999.90;;;13.80;99.90;;;;;;4956346;28;20571;-83
2022/08/04 04:11:00;;;;;;;1747.13;999.90;;;13.80;99.90;;;;;;4960012;28;20402;-84
2022/08/04 04:14:04;;;;;;;1596.15;999.90;;;13.90;99.90;;;;;;4961774;28;20410;-82
2022/08/04 04:17:07;;;;;;;1659.70;999.90;;;13.90;99.90;;;;;;4961646;28;20404;-83
2022/08/04 04:20:12;;;;;;;1652.20;999.90;;;13.90;99.90;;;;;;4963278;28;20927;-83
2022/08/04 04:23:01;;;;;;;1723.72;999.90;;;13.90;99.90;;;;;;4966267;28;20415;-85
2022/08/04 04:25:42;;;;;;;1831.18;999.90;;;13.90;99.90;;;;;;4963587;28;20457;-82
2022/08/04 04:28:22;;;;;;;1737.53;999.90;;;14.00;99.90;;;;;;4963269;28;20420;-81
2022/08/04 04:31:18;;;;;;;1718.65;999.90;;;14.00;99.90;;;;;;4964306;28;20474;-82
2022/08/04 04:34:34;;;;;;;1718.00;999.90;;;14.00;99.90;;;;;;4963023;28;20410;-82
2022/08/04 04:37:16;;;;;;;1797.32;999.90;;;14.10;99.90;;;;;;4951460;28;20879;-82
2022/08/04 04:39:58;;;;;;;1609.80;999.90;;;14.10;99.90;;;;;;4965307;28;20832;-81
2022/08/04 04:43:18;;;;;;;1522.85;999.90;;;14.10;99.90;;;;;;4965996;28;20502;-81
2022/08/04 04:45:54;;;;;;;1584.53;999.90;;;14.10;99.90;;;;;;4946662;29;20439;-82
2022/08/04 04:48:40;;;;;;;1576.18;999.90;;;14.10;99.90;;;;;;4954942;28;20829;-82
2022/08/04 04:51:46;;;;;;;1448.40;999.90;;;14.10;99.90;;;;;;4962412;28;20458;-83
2022/08/04 04:54:36;;;;;;;1383.03;999.90;;;14.20;99.90;;;;;;4932478;29;20424;-82
2022/08/04 04:57:13;;;;;;;1484.13;999.90;;;14.20;99.90;;;;;;4963244;28;20910;-82
2022/08/04 05:00:08;;;;;;;1399.82;999.90;;;14.20;99.90;;;;;;4959232;28;20404;-81
2022/08/04 05:03:13;;;;;;;1515.60;999.90;;;14.30;99.90;;;;;;4966962;28;20845;-80
2022/08/04 05:06:02;;;;;;;1481.45;999.90;;;14.30;99.90;;;;;;4962313;28;20388;-81
2022/08/04 05:08:50;;;;;;;1563.68;999.90;;;14.40;99.90;;;;;;4966648;28;20417;-81
2022/08/04 05:11:41;;;;;;;1608.47;999.90;;;14.40;99.90;;;;;;4958865;28;20551;-80
2022/08/04 05:14:17;;;;;;;1658.55;999.90;;;14.40;99.90;;;;;;4961317;28;20958;-82
2022/08/04 05:17:33;;;;;;;1573.20;999.90;;;14.50;99.90;;;;;;4970916;28;20402;-81
2022/08/04 05:20:07;;;;;;;1593.90;999.90;;;14.60;99.90;;;;;;4960350;28;20404;-82
2022/08/04 05:22:41;;;;;;;1442.53;999.90;;;14.70;99.90;;;;;;4957702;28;20893;-83
2022/08/04 05:25:36;;;;;;;1478.07;999.90;;;14.70;99.90;;;;;;4963476;28;20388;-83
2022/08/04 05:28:35;;;;;;;1532.15;999.90;;;14.80;99.90;;;;;;4965936;28;20505;-84
2022/08/04 05:31:20;;;;;;;1344.80;999.90;;;14.80;99.90;;;;;;4963125;28;20390;-85
2022/08/04 05:33:58;;;;;;;1571.32;999.90;;;15.00;99.90;;;;;;4980327;28;20811;-84
2022/08/04 05:36:38;;;;;;;1274.07;999.90;;;15.00;99.90;;;;;;4964359;28;20388;-86
2022/08/04 05:39:20;;;;;;;1628.95;999.90;;;15.20;99.90;;;;;;4967487;28;20404;-85
2022/08/04 05:41:50;;;;;;;1304.85;999.90;;;15.30;99.90;;;;;;4959708;28;20447;-85
2022/08/04 05:44:32;;;;;;;1525.30;999.90;;;15.30;99.90;;;;;;4965209;28;20507;-84
2022/08/04 05:47:00;;;;;;;1147.03;999.90;;;15.30;99.90;;;;;;4963818;28;20883;-85
2022/08/04 05:49:29;;;;;;;1383.85;999.90;;;15.40;99.90;;;;;;4965452;28;20767;-84
2022/08/04 05:52:00;;;;;;;1132.00;999.90;;;15.50;99.90;;;;;;4966694;28;21101;-85
2022/08/04 05:54:30;;;;;;;1289.40;999.90;;;15.60;99.90;;;;;;4967216;28;20482;-85
2022/08/04 05:56:58;;;;;;;1094.75;984.92;;;15.60;99.90;;;;;;4967335;28;20406;-84
2022/08/04 05:59:30;;;;;;;1249.18;999.90;;;15.70;99.90;;;;;;4956412;28;20420;-84
2022/08/04 06:01:59;;;;;;;1183.07;999.90;;;15.80;99.90;;;;;;4964817;28;20508;-84
2022/08/04 06:04:33;;;;;;;1151.45;999.90;;;15.80;99.90;;;;;;4969208;28;20410;-83
2022/08/04 06:07:01;;;;;;;1350.25;999.90;;;16.00;99.90;;;;;;4960252;28;20412;-83
2022/08/04 06:09:30;;;;;;;1273.28;999.90;;;16.00;99.90;;;;;;4964309;28;20436;-83
2022/08/04 06:12:06;;;;;;;1073.28;959.42;;;16.00;99.90;;;;;;4964204;28;20489;-83
2022/08/04 06:14:46;;;;;;;1434.82;999.90;;;16.20;99.90;;;;;;4959737;28;20797;-83
2022/08/04 06:17:23;;;;;;;1616.70;999.90;;;16.10;99.90;;;;;;4966959;28;20411;-84
2022/08/04 06:20:14;;;;;;;1255.38;999.90;;;16.00;99.90;;;;;;4962621;28;20431;-83
2022/08/04 06:22:55;;;;;;;1287.72;999.90;;;16.00;99.90;;;;;;4964661;28;20436;-83
2022/08/04 06:25:27;;;;;;;1280.63;999.90;;;15.90;99.90;;;;;;4965292;28;20515;-83
2022/08/04 06:27:56;;;;;;;1135.65;999.90;;;16.00;99.90;;;;;;4958037;28;20418;-84
2022/08/04 06:30:26;;;;;;;1213.18;999.90;;;16.10;99.90;;;;;;4965801;28;20409;-85
2022/08/04 06:32:55;;;;;;;1262.95;999.90;;;16.30;99.90;;;;;;4964251;28;20890;-83
2022/08/04 06:35:32;;;;;;;940.42;850.00;;;16.30;99.90;;;;;;4965271;28;20397;-83
2022/08/04 06:38:01;;;;;;;1169.38;999.90;;;16.60;99.90;;;;;;4968621;28;20880;-84
2022/08/04 06:40:30;;;;;;;1039.13;933.63;;;16.60;99.90;;;;;;4959618;28;20487;-84
2022/08/04 06:43:02;;;;;;;1204.78;999.90;;;16.70;99.90;;;;;;4966432;28;20406;-84
2022/08/04 06:45:33;;;;;;;1119.72;987.78;;;16.70;99.90;;;;;;4965963;28;20473;-83
2022/08/04 06:48:03;;;;;;;1196.70;999.90;;;16.80;99.90;;;;;;4965277;28;20411;-84
2022/08/04 06:50:33;;;;;;;1157.40;999.90;;;17.00;99.90;;;;;;4963817;28;20758;-84
2022/08/04 06:53:21;;;;;;;1149.45;999.90;;;16.90;99.90;;;;;;4965132;28;20406;-83
2022/08/04 06:55:50;;;;;;;1082.00;977.05;;;17.10;99.90;;;;;;4963956;28;20464;-82
2022/08/04 06:58:20;;;;;;;1429.20;999.90;;;17.10;99.90;;;;;;4972851;28;20443;-84
2022/08/04 07:00:49;;;;;;;1196.68;999.90;;;17.00;99.90;;;;;;4959738;28;20461;-83
2022/08/04 07:03:20;;;;;;;1143.65;999.90;;;17.00;99.90;;;;;;4965624;28;20487;-83
2022/08/04 07:05:48;;;;;;;1061.60;960.50;;;17.20;99.90;;;;;;4963068;28;20399;-84
2022/08/04 07:08:16;;;;;;;1039.38;928.45;;;17.20;99.90;;;;;;4962703;28;20518;-83
2022/08/04 07:10:45;;;;;;;1137.10;999.90;;;17.50;99.90;;;;;;4959431;28;20439;-84
2022/08/04 07:13:13;;;;;;;1112.60;992.65;;;17.50;99.90;;;;;;4964471;28;20404;-84
2022/08/04 07:15:46;;;;;;;1056.32;942.58;;;17.40;99.90;;;;;;4964198;28;20751;-83
2022/08/04 07:18:14;;;;;;;977.67;881.77;;;17.50;99.90;;;;;;4962960;28;20394;-83
2022/08/04 07:20:43;;;;;;;1063.95;955.78;;;17.70;99.90;;;;;;4964958;28;20392;-83
2022/08/04 07:23:18;;;;;;;1145.70;999.90;;;17.60;99.90;;;;;;4955951;28;20406;-83
2022/08/04 07:25:51;;;;;;;1059.05;960.33;;;17.60;99.90;;;;;;4963732;28;20492;-84
2022/08/04 07:28:39;;;;;;;1002.08;907.15;;;17.90;99.90;;;;;;4965394;28;20420;-83
2022/08/04 07:31:12;;;;;;;1150.45;999.83;;;18.10;99.90;;;;;;4963852;28;20474;-83
2022/08/04 07:34:01;;;;;;;1176.53;999.90;;;17.90;99.90;;;;;;4962715;28;20451;-85
2022/08/04 07:36:51;;;;;;;1152.32;999.90;;;18.00;99.90;;;;;;4965217;28;20434;-84
2022/08/04 07:39:23;;;;;;;1049.03;928.22;;;18.10;99.90;;;;;;4965172;28;20410;-84
2022/08/04 07:41:57;;;;;;;1188.68;999.90;;;18.30;99.90;;;;;;4957921;28;20407;-84
2022/08/04 07:44:29;;;;;;;1097.20;988.33;;;18.30;99.90;;;;;;4963128;28;20763;-84
2022/08/04 07:46:58;;;;;;;1105.30;990.40;;;18.30;99.90;;;;;;4961694;28;20398;-84
2022/08/04 07:49:26;;;;;;;1151.25;999.90;;;18.40;99.90;;;;;;4964225;28;20422;-84
2022/08/04 07:52:15;;;;;;;1129.47;999.90;;;18.50;99.90;;;;;;4962613;28;20391;-85
2022/08/04 07:54:43;;;;;;;1020.97;908.55;;;18.50;99.90;;;;;;4962126;28;20393;-85
2022/08/04 07:57:11;;;;;;;1239.70;999.90;;;18.70;99.90;;;;;;4965535;28;20409;-84
2022/08/04 07:59:58;;;;;;;1160.25;999.90;;;18.70;99.90;;;;;;4963809;28;20493;-82
2022/08/04 08:02:27;;;;;;;1129.22;999.90;;;18.80;99.90;;;;;;4970689;28;20406;-83
2022/08/04 08:04:55;;;;;;;1185.30;999.90;;;18.70;99.90;;;;;;4964530;28;20406;-85
2022/08/04 08:07:23;;;;;;;1200.47;999.90;;;18.70;99.90;;;;;;4969365;28;20403;-83
2022/08/04 08:09:50;;;;;;;1105.72;965.58;;;18.70;99.90;;;;;;4963788;28;20450;-84
2022/08/04 08:12:19;;;;;;;1008.15;918.08;;;19.00;99.90;;;;;;4964332;28;20414;-84
2022/08/04 08:15:08;;;;;;;1215.40;999.90;;;19.30;99.90;;;;;;4955844;28;20404;-84
2022/08/04 08:17:38;;;;;;;1396.93;999.90;;;19.40;99.90;;;;;;4963377;28;20444;-85
2022/08/04 08:20:26;;;;;;;1171.32;999.90;;;19.30;99.90;;;;;;4962263;28;20411;-85
2022/08/04 08:22:57;;;;;;;1041.20;931.55;;;19.20;99.90;;;;;;4962483;28;20424;-82
2022/08/04 08:25:24;;;;;;;1035.57;925.35;;;19.50;99.90;;;;;;4964644;28;20504;-83
2022/08/04 08:27:52;;;;;;;1040.90;927.15;;;19.60;99.90;;;;;;4964476;28;20571;-84
2022/08/04 08:30:24;;;;;;;1199.95;999.90;;;19.60;99.90;;;;;;4963396;28;20450;-84
2022/08/04 08:33:01;;;;;;;1106.10;996.90;;;19.50;99.90;;;;;;4962023;28;20392;-85
2022/08/04 08:35:46;;;;;;;1121.88;999.90;;;19.50;99.90;;;;;;4956216;28;20407;-84
2022/08/04 08:38:37;;;;;;;1144.63;999.90;;;19.50;99.90;;;;;;4962449;28;20463;-84
2022/08/04 08:41:41;;;;;;;1103.00;982.22;;;19.70;99.90;;;;;;4959372;28;20415;-84
2022/08/04 08:44:17;;;;;;;999.60;907.72;;;19.80;99.90;;;;;;4961874;28;20392;-84
2022/08/04 08:47:30;;;;;;;1308.90;999.90;;;19.80;99.90;;;;;;4964392;28;20434;-84
2022/08/04 08:50:44;;;;;;;1077.60;967.63;;;19.70;99.90;;;;;;4961919;28;20402;-84
2022/08/04 08:53:30;;;;;;;1113.50;993.88;;;19.90;99.90;;;;;;4963176;28;20901;-85
2022/08/04 08:56:09;;;;;;;1123.57;998.53;;;20.00;99.90;;;;;;4964350;28;20415;-85
2022/08/04 08:59:01;;;;;;;1096.88;978.95;;;20.20;99.90;;;;;;4963979;28;20404;-83
2022/08/04 09:02:06;;;;;;;1143.30;999.90;;;20.40;99.90;;;;;;4964209;28;20493;-85
2022/08/04 09:04:52;;;;;;;1077.68;965.13;;;20.50;99.90;;;;;;4960299;28;20893;-82
2022/08/04 09:07:20;;;;;;;1033.45;926.85;;;20.60;99.90;;;;;;4960867;28;20414;-85
2022/08/04 09:09:48;;;;;;;1081.68;976.78;;;20.70;99.90;;;;;;4967780;28;20841;-85
2022/08/04 09:12:25;;;;;;;1068.93;954.70;;;20.60;99.90;;;;;;4963938;28;20403;-84
2022/08/04 09:15:05;;;;;;;1122.63;997.22;;;20.80;99.90;;;;;;4963355;28;20430;-84
2022/08/04 09:17:47;;;;;;;1159.78;999.90;;;20.70;99.90;;;;;;4963410;28;20399;-85
2022/08/04 09:20:42;;;;;;;1157.60;999.90;;;20.80;99.90;;;;;;4956848;28;20883;-84
2022/08/04 09:23:29;;;;;;;1238.15;999.90;;;20.80;99.90;;;;;;4962174;28;20411;-85
2022/08/04 09:26:18;;;;;;;1023.50;908.60;;;20.90;99.90;;;;;;4965668;28;20777;-84
2022/08/04 09:29:26;;;;;;;1012.72;908.17;;;21.10;99.90;;;;;;4964465;28;20421;-85
2022/08/04 09:32:31;;;;;;;1062.75;969.22;;;21.20;99.90;;;;;;4965829;28;20409;-84
2022/08/04 09:35:22;;;;;;;1285.23;999.90;;;21.10;99.90;;;;;;4959043;28;20404;-85
2022/08/04 09:38:08;;;;;;;1258.50;999.90;;;21.10;99.90;;;;;;4967362;28;20417;-84
2022/08/04 09:40:57;;;;;;;1514.47;999.90;;;21.50;99.90;;;;;;4964783;28;20400;-85
2022/08/04 09:43:53;;;;;;;1155.82;999.90;;;21.40;99.90;;;;;;4956286;28;20395;-85
2022/08/04 09:47:13;;;;;;;1147.72;999.90;;;21.40;99.90;;;;;;4956218;28;20470;-86
2022/08/04 09:49:57;;;;;;;1052.57;943.35;;;21.30;99.90;;;;;;4959908;28;20424;-85
2022/08/04 09:52:55;;;;;;;1174.38;999.90;;;21.30;99.90;;;;;;4960498;28;20388;-83
2022/08/04 09:55:41;;;;;;;1199.57;999.90;;;21.20;99.90;;;;;;4964490;28;20419;-84
2022/08/04 09:58:33;;;;;;;1205.45;999.90;;;21.20;99.90;;;;;;4966036;28;20398;-84
2022/08/04 10:01:07;;;;;;;1482.38;999.90;;;21.30;99.90;;;;;;4964344;28;20384;-84
2022/08/04 10:03:40;;;;;;;1333.70;999.90;;;21.40;99.90;;;;;;4966298;28;20409;-83
2022/08/04 10:06:13;;;;;;;1200.15;999.90;;;21.50;99.90;;;;;;4965153;28;20403;-84
2022/08/04 10:08:58;;;;;;;1251.57;999.90;;;21.50;99.90;;;;;;4956985;28;20456;-84
2022/08/04 10:11:54;;;;;;;1167.65;999.90;;;21.40;99.90;;;;;;4965439;28;20499;-84
2022/08/04 10:14:35;;;;;;;1458.45;999.90;;;21.30;99.90;;;;;;4964465;28;20414;-84
2022/08/04 10:17:22;;;;;;;1232.15;999.90;;;21.40;99.90;;;;;;4964823;28;20999;-86
2022/08/04 10:20:02;;;;;;;1208.15;999.90;;;21.50;99.90;;;;;;4965420;28;20709;-87
2022/08/04 10:22:37;;;;;;;1216.75;999.90;;;21.50;99.90;;;;;;4965439;28;20446;-86
2022/08/04 10:25:52;;;;;;;1106.57;982.33;;;21.60;99.90;;;;;;4961943;28;20396;-87
2022/08/04 10:28:43;;;;;;;1132.13;999.90;;;21.60;99.90;;;;;;4962715;28;20410;-84
2022/08/04 10:31:23;;;;;;;1120.97;999.75;;;21.60;99.90;;;;;;4971732;28;20526;-86
2022/08/04 10:34:00;;;;;;;1161.22;999.90;;;21.80;99.90;;;;;;4968958;28;20754;-84
2022/08/04 10:36:38;;;;;;;1138.60;999.90;;;22.00;99.90;;;;;;4972861;28;20528;-86
2022/08/04 10:39:14;;;;;;;1214.82;999.90;;;22.00;99.90;;;;;;4968245;28;20429;-87
2022/08/04 10:42:21;;;;;;;1404.90;999.90;;;22.20;99.90;;;;;;4959706;28;20502;-85
2022/08/04 10:44:54;;;;;;;1483.95;999.90;;;22.30;99.90;;;;;;4970862;28;20414;-85
2022/08/04 10:47:31;;;;;;;1306.78;999.90;;;22.20;99.90;;;;;;4964194;28;20435;-87
2022/08/04 10:50:01;;;;;;;1172.47;999.90;;;22.40;99.90;;;;;;4969085;28;20423;-86
2022/08/04 10:52:53;;;;;;;1236.95;999.90;;;22.40;99.90;;;;;;4968800;28;20410;-87
2022/08/04 10:55:29;;;;;;;1374.53;999.90;;;22.30;99.90;;;;;;4961599;28;20949;-86
2022/08/04 10:58:20;;;;;;;1317.67;999.90;;;22.40;99.90;;;;;;4960501;28;20418;-86
2022/08/04 11:01:22;;;;;;;1492.25;999.90;;;22.40;99.90;;;;;;4961082;28;20404;-86
2022/08/04 11:04:33;;;;;;;1124.70;999.90;;;22.60;99.90;;;;;;4958231;28;20415;-86
2022/08/04 11:07:02;;;;;;;1301.00;999.90;;;22.80;99.90;;;;;;4963520;28;20390;-84
2022/08/04 11:09:32;;;;;;;1255.60;999.90;;;23.00;99.90;;;;;;4971517;28;20472;-83
2022/08/04 11:12:15;;;;;;;1152.68;999.90;;;23.00;99.90;;;;;;4971880;28;20419;-86
2022/08/04 11:15:10;;;;;;;1419.40;999.90;;;23.10;99.90;;;;;;4963260;28;20928;-86
2022/08/04 11:17:43;;;;;;;1359.95;999.90;;;23.10;99.90;;;;;;4969669;28;20398;-84
2022/08/04 11:20:14;;;;;;;1539.28;999.90;;;23.30;99.90;;;;;;4961346;28;20993;-86
2022/08/04 11:23:27;;;;;;;1158.68;999.90;;;23.30;99.90;;;;;;4957945;28;20412;-85
2022/08/04 11:26:37;;;;;;;1245.25;999.90;;;23.40;99.90;;;;;;4962618;28;20406;-86
2022/08/04 11:29:23;;;;;;;1762.00;999.90;;;23.20;99.90;;;;;;4956577;28;20420;-86
2022/08/04 11:31:52;;;;;;;1418.70;999.90;;;23.00;99.90;;;;;;4963648;28;20406;-85
2022/08/04 11:34:25;;;;;;;1298.38;999.90;;;23.20;99.90;;;;;;4956353;28;20395;-86
2022/08/04 11:37:14;;;;;;;1616.70;999.90;;;23.30;99.90;;;;;;4965552;28;20437;-84
2022/08/04 11:39:42;;;;;;;1268.18;999.90;;;23.50;99.90;;;;;;4956800;28;20864;-85
2022/08/04 11:42:29;;;;;;;1590.87;999.90;;;23.70;99.90;;;;;;4956374;28;20406;-86
2022/08/04 11:45:32;;;;;;;1587.03;999.90;;;23.80;99.90;;;;;;4970104;28;20423;-86
2022/08/04 11:48:05;;;;;;;1460.83;999.90;;;23.80;99.90;;;;;;4953541;28;20424;-86
2022/08/04 11:50:42;;;;;;;1472.57;999.90;;;24.00;99.90;;;;;;4964616;28;20418;-86
2022/08/04 11:53:15;;;;;;;1405.95;999.90;;;24.10;99.90;;;;;;4963667;28;20419;-86
2022/08/04 11:55:47;;;;;;;1501.83;999.90;;;24.10;99.90;;;;;;4964156;28;20400;-86
2022/08/04 11:58:36;;;;;;;1146.60;999.90;;;24.20;99.90;;;;;;4964961;28;20406;-86
2022/08/04 12:01:22;;;;;;;1591.40;999.90;;;24.30;99.90;;;;;;4967231;28;20505;-87
2022/08/04 12:04:16;;;;;;;1636.43;999.90;;;24.30;99.90;;;;;;4961229;28;20396;-86
2022/08/04 12:07:20;;;;;;;1620.70;999.90;;;24.50;99.90;;;;;;4962557;28;20387;-85
2022/08/04 12:10:31;;;;;;;1230.40;999.90;;;24.60;99.90;;;;;;4949996;29;20499;-86
2022/08/04 12:13:39;;;;;;;1600.90;999.90;;;24.50;99.90;;;;;;4960429;28;20492;-86
2022/08/04 12:16:31;;;;;;;1837.78;999.90;;;24.80;99.90;;;;;;4972336;28;20880;-84
2022/08/04 12:19:07;;;;;;;1479.00;999.90;;;24.90;99.90;;;;;;4962244;28;20388;-85
2022/08/04 12:21:46;;;;;;;1621.88;999.90;;;24.90;99.90;;;;;;4953437;28;20491;-85
2022/08/04 12:24:37;;;;;;;1574.97;999.90;;;24.70;99.90;;;;;;4972692;28;20394;-85
2022/08/04 12:27:15;;;;;;;1635.53;999.90;;;24.90;99.90;;;;;;4969101;28;20470;-86
2022/08/04 12:29:45;;;;;;;1669.75;999.90;;;24.90;99.90;;;;;;4953441;28;20435;-85
2022/08/04 12:32:50;;;;;;;1618.32;999.90;;;24.90;99.90;;;;;;4961811;28;20484;-86
2022/08/04 12:35:37;;;;;;;1696.63;999.90;;;25.10;99.90;;;;;;4968380;28;20404;-86
2022/08/04 12:38:31;;;;;;;1653.22;999.90;;;25.10;99.90;;;;;;4962002;28;20400;-85
2022/08/04 12:41:03;;;;;;;1456.83;999.90;;;25.00;99.90;;;;;;4965693;28;20412;-86
2022/08/04 12:43:42;;;;;;;1803.57;999.90;;;25.10;99.90;;;;;;4961977;28;20390;-85
2022/08/04 12:46:18;;;;;;;1630.35;999.90;;;25.10;99.90;;;;;;4962062;28;20398;-85
2022/08/04 12:48:47;;;;;;;1769.97;999.90;;;25.30;99.90;;;;;;4963861;28;20391;-83
2022/08/04 12:51:16;;;;;;;1768.22;999.90;;;25.40;99.90;;;;;;4964574;28;20443;-86
2022/08/04 12:54:05;;;;;;;1540.60;999.90;;;25.50;99.90;;;;;;4973163;28;20402;-85
2022/08/04 12:56:34;;;;;;;1728.45;999.90;;;25.40;99.90;;;;;;4979743;28;20403;-85
2022/08/04 12:59:08;;;;;;;1695.65;999.90;;;25.60;99.90;;;;;;4975175;28;20425;-86
2022/08/04 13:01:46;;;;;;;1451.30;999.90;;;25.60;99.90;;;;;;4967246;28;20409;-86
2022/08/04 13:04:37;;;;;;;1481.53;999.90;;;25.50;99.90;;;;;;4975215;28;20947;-85
2022/08/04 13:07:18;;;;;;;1787.47;999.90;;;25.50;99.90;;;;;;4964786;28;20396;-86
2022/08/04 13:09:47;;;;;;;1746.32;999.90;;;25.60;99.90;;;;;;4967060;28;20955;-85
2022/08/04 13:12:25;;;;;;;1691.50;999.90;;;25.70;99.90;;;;;;4970261;28;20402;-86